createdAt,value
2022-09-07T00:02:00.771Z,0.5
2022-09-07T00:04:26.851Z,0
2022-09-07T00:06:52.953Z,0.1
2022-09-07T00:09:19.071Z,0.3
2022-09-07T00:11:45.138Z,0.3
2022-09-07T00:14:11.231Z,0
2022-09-07T00:16:37.333Z,0.4
2022-09-07T00:19:03.439Z,0.9
2022-09-07T00:21:29.520Z,0.6
2022-09-07T00:23:55.621Z,0.5
2022-09-07T00:26:21.714Z,0.5
2022-09-07T00:28:46.825Z,0.5
2022-09-07T00:31:12.912Z,0.3
2022-09-07T00:33:39.010Z,0.6
2022-09-07T00:38:31.200Z,0.9
2022-09-07T00:40:57.297Z,0.4
2022-09-07T00:43:23.402Z,0.2
2022-09-07T00:45:49.500Z,0.7
2022-09-07T00:48:15.600Z,0.5
2022-09-07T00:50:41.685Z,0.2
2022-09-07T00:53:07.790Z,0.9
2022-09-07T00:55:33.876Z,0.4
2022-09-07T00:57:59.980Z,0.3
2022-09-07T01:00:25.084Z,0.5
2022-09-07T01:02:51.177Z,0.6
2022-09-07T01:05:17.283Z,0.2
2022-09-07T01:07:43.406Z,0.7
2022-09-07T01:10:09.460Z,0.6
2022-09-07T01:12:35.571Z,0.6
2022-09-07T01:15:01.653Z,0.2
2022-09-07T01:17:27.739Z,0.5
2022-09-07T01:19:53.837Z,0.7
2022-09-07T01:22:19.934Z,0.2
2022-09-07T01:24:46.040Z,0.7
2022-09-07T01:27:12.127Z,0.5
2022-09-07T01:29:38.218Z,0.4
2022-09-07T01:32:03.344Z,0.5
2022-09-07T01:34:29.419Z,0.7
2022-09-07T01:36:55.523Z,0.4
2022-09-07T01:39:21.621Z,0.5
2022-09-07T01:41:47.711Z,0.4
2022-09-07T01:44:13.807Z,0.3
2022-09-07T01:46:39.913Z,0.2
2022-09-07T01:49:06.004Z,0.4
2022-09-07T01:51:32.094Z,1.1
2022-09-07T01:53:58.197Z,0.3
2022-09-07T01:56:24.284Z,0.6
2022-09-07T01:58:50.430Z,0.3
2022-09-07T02:01:16.482Z,0.8
2022-09-07T02:03:41.605Z,0.4
2022-09-07T02:06:07.685Z,0.6
2022-09-07T02:08:33.784Z,0.5
2022-09-07T02:10:59.892Z,0.5
2022-09-07T02:13:25.976Z,0.3
2022-09-07T02:15:52.067Z,0.6
2022-09-07T02:18:18.167Z,0.6
2022-09-07T02:20:44.258Z,0.7
2022-09-07T02:23:10.349Z,0.6
2022-09-07T02:25:36.457Z,1.2
2022-09-07T02:28:02.543Z,0.4
2022-09-07T02:30:28.639Z,0.5
2022-09-07T02:32:54.747Z,0.3
2022-09-07T02:35:19.851Z,0.2
2022-09-07T02:37:45.931Z,0.3
2022-09-07T02:40:12.043Z,0.2
2022-09-07T02:42:38.133Z,0.5
2022-09-07T02:45:04.233Z,0.5
2022-09-07T02:47:30.329Z,0.5
2022-09-07T02:49:56.412Z,0.7
2022-09-07T02:52:22.513Z,0.3
2022-09-07T02:54:48.616Z,0.1
2022-09-07T02:57:14.708Z,0.8
2022-09-07T02:59:40.800Z,0.3
2022-09-07T03:02:06.882Z,0.2
2022-09-07T03:04:32.998Z,0.7
2022-09-07T03:06:58.117Z,0.3
2022-09-07T03:09:24.185Z,0.3
2022-09-07T03:11:50.279Z,0.9
2022-09-07T03:14:16.389Z,0.3
2022-09-07T03:16:42.481Z,0.7
2022-09-07T03:19:08.570Z,0.8
2022-09-07T03:21:34.676Z,0.5
2022-09-07T03:24:00.775Z,0.6
2022-09-07T03:26:26.861Z,0.7
2022-09-07T03:28:52.957Z,0.2
2022-09-07T03:31:19.044Z,0.4
2022-09-07T03:33:45.147Z,0.2
2022-09-07T03:36:11.242Z,0.6
2022-09-07T03:38:36.338Z,0.4
2022-09-07T03:41:02.450Z,0.5
2022-09-07T03:43:28.543Z,0.5
2022-09-07T03:45:54.626Z,0.4
2022-09-07T03:48:20.755Z,0.4
2022-09-07T03:50:46.832Z,0.3
2022-09-07T03:53:12.924Z,0.4
2022-09-07T03:55:39.019Z,0
2022-09-07T03:58:05.105Z,0.1
2022-09-07T04:00:31.214Z,0.1
2022-09-07T04:02:57.324Z,0.3
2022-09-07T04:05:23.388Z,0
2022-09-07T04:07:49.495Z,0.3
2022-09-07T04:10:14.615Z,0.4
2022-09-07T04:12:40.701Z,0.1
2022-09-07T04:15:06.799Z,0.3
2022-09-07T04:17:32.899Z,0.5
2022-09-07T04:19:58.991Z,0.3
2022-09-07T04:22:25.086Z,0.2
2022-09-07T04:24:51.180Z,0.3
2022-09-07T04:27:17.276Z,0.4
2022-09-07T04:29:43.361Z,0.6
2022-09-07T04:32:09.461Z,0.1
2022-09-07T04:34:35.609Z,0.4
2022-09-07T04:37:01.657Z,0.6
2022-09-07T04:39:27.762Z,0.3
2022-09-07T04:41:52.927Z,0.3
2022-09-07T04:44:18.954Z,0.2
2022-09-07T04:46:45.058Z,0.7
2022-09-07T04:49:11.149Z,0.4
2022-09-07T04:51:37.266Z,1.4
2022-09-07T04:54:03.346Z,0.6
2022-09-07T04:56:29.423Z,0.5
2022-09-07T04:58:55.526Z,0.4
2022-09-07T05:01:21.625Z,0.3
2022-09-07T05:03:47.715Z,1.1
2022-09-07T05:06:13.824Z,0.2
2022-09-07T05:08:39.921Z,0.6
2022-09-07T05:11:06.011Z,0.8
2022-09-07T05:13:31.117Z,0.2
2022-09-07T05:15:57.225Z,0.1
2022-09-07T05:18:23.320Z,0.7
2022-09-07T05:20:49.408Z,0.7
2022-09-07T05:23:15.497Z,0.1
2022-09-07T05:25:41.594Z,0.1
2022-09-07T05:28:07.697Z,0.3
2022-09-07T05:30:33.788Z,0.2
2022-09-07T05:32:59.885Z,0.2
2022-09-07T05:35:25.969Z,1.5
2022-09-07T05:37:52.064Z,0.2
2022-09-07T05:40:18.165Z,0.8
2022-09-07T05:42:44.258Z,0.6
2022-09-07T05:45:09.373Z,0.3
2022-09-07T05:47:35.469Z,0.6
2022-09-07T05:50:01.572Z,0.5
2022-09-07T05:52:27.652Z,0.5
2022-09-07T05:54:53.748Z,0.2
2022-09-07T05:57:19.852Z,0.5
2022-09-07T05:59:45.943Z,0.6
2022-09-07T06:02:12.042Z,0.4
2022-09-07T06:04:38.139Z,0.8
2022-09-07T06:07:04.231Z,0.5
2022-09-07T06:09:30.320Z,0.8
2022-09-07T06:11:56.439Z,0.3
2022-09-07T06:14:22.510Z,0.9
2022-09-07T06:16:47.632Z,0.7
2022-09-07T06:19:13.732Z,1.1
2022-09-07T06:21:39.827Z,1.1
2022-09-07T06:24:05.928Z,1
2022-09-07T06:26:32.022Z,0.5
2022-09-07T06:28:58.099Z,1
2022-09-07T06:31:24.211Z,0.9
2022-09-07T06:33:50.308Z,0.6
2022-09-07T06:36:16.391Z,0.9
2022-09-07T06:38:42.490Z,1.1
2022-09-07T06:41:08.589Z,0.9
2022-09-07T06:43:34.687Z,0.7
2022-09-07T06:46:00.775Z,1.7
2022-09-07T06:48:25.887Z,1.2
2022-09-07T06:50:51.984Z,1
2022-09-07T06:53:18.315Z,1.2
2022-09-07T06:55:44.175Z,1.2
2022-09-07T06:58:10.273Z,1.3
2022-09-07T07:00:36.402Z,1.2
2022-09-07T07:03:02.470Z,1.5
2022-09-07T07:05:28.552Z,1
2022-09-07T07:07:54.656Z,1.6
2022-09-07T07:10:20.757Z,1.1
2022-09-07T07:12:46.968Z,1.2
2022-09-07T07:15:12.930Z,1.2
2022-09-07T07:17:39.040Z,1.1
2022-09-07T07:20:04.144Z,1.4
2022-09-07T07:22:30.246Z,1.5
2022-09-07T07:24:56.343Z,1.1
2022-09-07T07:27:22.424Z,1.9
2022-09-07T07:29:48.513Z,1.1
2022-09-07T07:34:40.706Z,1.2
2022-09-07T07:37:05.869Z,1.2
2022-09-07T07:39:31.929Z,1.1
2022-09-07T07:41:58.046Z,1.2
2022-09-07T07:44:24.111Z,1.1
2022-09-07T07:46:50.206Z,1.5
2022-09-07T07:49:16.317Z,1.4
2022-09-07T07:51:42.411Z,1.5
2022-09-07T07:54:08.494Z,1.1
2022-09-07T07:56:34.611Z,1.5
2022-09-07T07:59:00.681Z,1.6
2022-09-07T08:01:26.790Z,1.1
2022-09-07T08:03:52.883Z,1.4
2022-09-07T08:06:18.986Z,1.4
2022-09-07T08:08:44.096Z,0.8
2022-09-07T08:11:10.177Z,0.7
2022-09-07T08:13:36.286Z,0.8
2022-09-07T08:16:02.423Z,0.8
2022-09-07T08:18:28.463Z,1
2022-09-07T08:20:54.573Z,0.7
2022-09-07T08:23:20.718Z,1
2022-09-07T08:25:46.770Z,0.8
2022-09-07T08:28:12.859Z,0.9
2022-09-07T08:30:38.945Z,0.8
2022-09-07T08:33:05.061Z,0.7
2022-09-07T08:35:31.146Z,1.4
2022-09-07T08:37:57.238Z,1.7
2022-09-07T08:40:22.354Z,1.3
2022-09-07T08:42:48.435Z,1.1
2022-09-07T08:45:14.524Z,1
2022-09-07T08:47:40.623Z,1.6
2022-09-07T08:50:06.723Z,0.8
2022-09-07T08:52:32.818Z,1
2022-09-07T08:54:58.952Z,0.9
2022-09-07T08:57:25.010Z,1.1
2022-09-07T08:59:51.096Z,0.9
2022-09-07T09:02:17.202Z,1.6
2022-09-07T09:04:43.282Z,1.3
2022-09-07T09:07:09.412Z,1
2022-09-07T09:09:35.485Z,1.1
2022-09-07T09:12:00.587Z,0.9
2022-09-07T09:14:26.676Z,1
2022-09-07T09:16:52.837Z,0.7
2022-09-07T09:21:44.987Z,0.7
2022-09-07T09:24:11.064Z,1.2
2022-09-07T09:26:37.172Z,1.2
2022-09-07T09:29:03.280Z,1.1
2022-09-07T09:31:29.362Z,1
2022-09-07T09:33:55.446Z,1
2022-09-07T09:38:47.658Z,1
2022-09-07T09:41:13.753Z,1.1
2022-09-07T09:43:38.883Z,1.6
2022-09-07T09:46:04.951Z,1.2
2022-09-07T09:48:31.030Z,1.1
2022-09-07T09:50:57.143Z,1.6
2022-09-07T09:53:23.228Z,1.1
2022-09-07T09:55:49.316Z,1.4
2022-09-07T09:58:15.426Z,1.2
2022-09-07T10:00:41.526Z,1.1
2022-09-07T10:03:07.607Z,1.5
2022-09-07T10:05:33.703Z,1
2022-09-07T10:07:59.832Z,1.4
2022-09-07T10:10:25.897Z,1.2
2022-09-07T10:12:51.979Z,1.3
2022-09-07T10:15:17.117Z,1.4
2022-09-07T10:17:43.179Z,1.3
2022-09-07T10:20:09.284Z,1.2
2022-09-07T10:22:35.419Z,1.1
2022-09-07T10:25:01.479Z,1.5
2022-09-07T10:27:27.572Z,1.4
2022-09-07T10:29:53.689Z,1.2
2022-09-07T10:32:19.789Z,1.5
2022-09-07T10:34:45.867Z,1.4
2022-09-07T10:37:11.945Z,0.7
2022-09-07T10:39:38.072Z,1
2022-09-07T10:42:04.156Z,1
2022-09-07T10:44:30.276Z,1.3
2022-09-07T10:46:55.345Z,1.1
2022-09-07T10:49:21.452Z,1
2022-09-07T10:51:47.547Z,1.5
2022-09-07T10:54:13.655Z,1.2
2022-09-07T10:56:39.779Z,1.3
2022-09-07T10:59:05.833Z,1.1
2022-09-07T11:01:31.918Z,1.2
2022-09-07T11:03:58.019Z,1.3
2022-09-07T11:06:24.146Z,1.3
2022-09-07T11:08:50.210Z,1.2
2022-09-07T11:11:16.308Z,1.4
2022-09-07T11:13:42.391Z,1.3
2022-09-07T11:16:08.505Z,0.9
2022-09-07T11:18:33.597Z,1.1
2022-09-07T11:20:59.729Z,1.1
2022-09-07T11:23:25.789Z,1.3
2022-09-07T11:25:51.898Z,1.3
2022-09-07T11:28:17.975Z,1.3
2022-09-07T11:30:44.076Z,1.4
2022-09-07T11:33:10.203Z,1.5
2022-09-07T11:35:36.269Z,1
2022-09-07T11:38:02.430Z,1.5
2022-09-07T11:40:28.526Z,1.6
2022-09-07T11:42:54.580Z,1.2
2022-09-07T11:45:20.672Z,1.3
2022-09-07T11:47:46.773Z,1.3
2022-09-07T11:50:11.860Z,1.2
2022-09-07T11:52:37.948Z,1.2
2022-09-07T11:55:04.058Z,1.4
2022-09-07T11:57:30.193Z,1.6
2022-09-07T11:59:56.269Z,1.6
2022-09-07T12:02:22.328Z,1.4
2022-09-07T12:04:48.427Z,1.4
2022-09-07T12:07:14.580Z,1.4
2022-09-07T12:09:40.616Z,1.5
2022-09-07T12:12:06.771Z,1.5
2022-09-07T12:14:32.844Z,1.3
2022-09-07T12:16:58.973Z,1.6
2022-09-07T12:19:25.049Z,1.4
2022-09-07T12:21:50.160Z,1.5
2022-09-07T12:24:16.213Z,1.2
2022-09-07T12:26:42.309Z,1.2
2022-09-07T12:29:08.411Z,1.2
2022-09-07T12:31:34.507Z,1.4
2022-09-07T12:34:00.591Z,1.4
2022-09-07T12:36:26.742Z,1.3
2022-09-07T12:38:52.790Z,1.5
2022-09-07T12:41:18.910Z,1.5
2022-09-07T12:43:44.973Z,1.5
2022-09-07T12:46:11.063Z,1.5
2022-09-07T12:48:37.198Z,1.4
2022-09-07T12:51:03.287Z,1.4
2022-09-07T12:53:28.427Z,1.6
2022-09-07T12:55:54.465Z,1.5
2022-09-07T12:58:20.567Z,1.2
2022-09-07T13:00:46.665Z,1.5
2022-09-07T13:03:12.752Z,1.3
2022-09-07T13:05:38.920Z,1.3
2022-09-07T13:08:04.952Z,1.4
2022-09-07T13:10:31.040Z,1.1
2022-09-07T13:12:57.148Z,1.3
2022-09-07T13:15:23.221Z,1.3
2022-09-07T13:17:49.321Z,1.6
2022-09-07T13:20:15.461Z,1.3
2022-09-07T13:22:41.518Z,1.4
2022-09-07T13:25:06.618Z,1.3
2022-09-07T13:27:32.714Z,1.2
2022-09-07T13:29:58.834Z,1.4
2022-09-07T13:32:24.952Z,1.5
2022-09-07T13:34:51.018Z,1.4
2022-09-07T13:37:17.127Z,1.5
2022-09-07T13:39:43.192Z,1.2
2022-09-07T13:42:09.330Z,1.4
2022-09-07T13:44:35.403Z,1.2
2022-09-07T13:47:01.478Z,1
2022-09-07T13:49:27.579Z,0.9
2022-09-07T13:51:53.708Z,1.2
2022-09-07T13:54:19.764Z,1.3
2022-09-07T13:56:44.887Z,1.3
2022-09-07T13:59:11.047Z,1.3
2022-09-07T14:01:37.073Z,1.4
2022-09-07T14:04:03.236Z,1.5
2022-09-07T14:06:29.271Z,1.4
2022-09-07T14:08:55.368Z,1.4
2022-09-07T14:11:21.513Z,1.3
2022-09-07T14:13:47.552Z,1.2
2022-09-07T14:16:13.642Z,1.3
2022-09-07T14:18:39.754Z,1.5
2022-09-07T14:21:05.900Z,1.4
2022-09-07T14:23:31.921Z,1.3
2022-09-07T14:25:58.031Z,1.6
2022-09-07T14:28:23.138Z,1.4
2022-09-07T14:30:49.236Z,1.3
2022-09-07T14:33:15.346Z,1.3
2022-09-07T14:35:41.460Z,1.5
2022-09-07T14:38:07.524Z,1.3
2022-09-07T14:40:33.623Z,1.3
2022-09-07T14:42:59.710Z,1.2
2022-09-07T14:45:25.854Z,1.2
2022-09-07T14:47:51.890Z,1.5
2022-09-07T14:50:18.033Z,1
2022-09-07T14:52:44.118Z,1.3
2022-09-07T14:55:10.189Z,1.2
2022-09-07T14:57:36.281Z,1.2
2022-09-07T15:00:01.408Z,1.4
2022-09-07T15:02:27.510Z,1.3
2022-09-07T15:04:53.608Z,1.4
2022-09-07T15:07:19.693Z,1
2022-09-07T15:09:45.807Z,1.1
2022-09-07T15:12:11.887Z,1.1
2022-09-07T15:14:38.018Z,1.3
2022-09-07T15:17:04.085Z,1.3
2022-09-07T15:19:30.160Z,1.3
2022-09-07T15:21:56.257Z,1.3
2022-09-07T15:24:22.366Z,1.4
2022-09-07T15:26:48.452Z,1
2022-09-07T15:29:14.551Z,1.3
2022-09-07T15:31:39.676Z,1.5
2022-09-07T15:34:05.749Z,1.4
2022-09-07T15:36:31.862Z,1.1
2022-09-07T15:38:57.956Z,1.2
2022-09-07T15:41:24.044Z,1.2
2022-09-07T15:43:50.137Z,2.1
2022-09-07T15:46:15.265Z,1.3
2022-09-07T15:48:41.352Z,1.3
2022-09-07T15:51:07.455Z,1.3
2022-09-07T15:53:33.549Z,1
2022-09-07T15:55:59.708Z,1
2022-09-07T15:58:25.725Z,1.4
2022-09-07T16:00:51.828Z,1.1
2022-09-07T16:03:17.919Z,1.2
2022-09-07T16:05:44.038Z,1.3
2022-09-07T16:08:10.118Z,1.1
2022-09-07T16:10:36.270Z,1.5
2022-09-07T16:13:02.333Z,1.1
2022-09-07T16:15:28.409Z,1.2
2022-09-07T16:17:53.517Z,1.3
2022-09-07T16:20:19.603Z,1.1
2022-09-07T16:22:45.701Z,1.2
2022-09-07T16:25:11.794Z,1.4
2022-09-07T16:27:37.887Z,1.3
2022-09-07T16:30:03.996Z,1.1
2022-09-07T16:32:30.085Z,1.4
2022-09-07T16:34:56.183Z,1.3
2022-09-07T16:37:22.291Z,1.3
2022-09-07T16:39:48.372Z,1
2022-09-07T16:42:14.490Z,1.1
2022-09-07T16:44:40.609Z,1.2
2022-09-07T16:47:06.663Z,1.2
2022-09-07T16:49:31.799Z,1.2
2022-09-07T16:51:57.878Z,1.2
2022-09-07T16:54:23.960Z,1.3
2022-09-07T16:56:50.055Z,1.1
2022-09-07T16:59:16.143Z,1.5
2022-09-07T17:01:42.240Z,1.5
2022-09-07T17:04:08.337Z,1
2022-09-07T17:06:34.430Z,1.4
2022-09-07T17:09:00.563Z,1.3
2022-09-07T17:11:26.645Z,1.1
2022-09-07T17:13:52.753Z,0.9
2022-09-07T17:16:18.824Z,1
2022-09-07T17:18:44.910Z,0.9
2022-09-07T17:21:10.028Z,0.8
2022-09-07T17:23:36.155Z,1
2022-09-07T17:26:02.222Z,0.7
2022-09-07T17:28:28.310Z,0.4
2022-09-07T17:30:54.414Z,1.2
2022-09-07T17:33:20.498Z,0.8
2022-09-07T17:35:46.604Z,0.8
2022-09-07T17:38:12.729Z,0.9
2022-09-07T17:40:38.794Z,1.1
2022-09-07T17:43:04.876Z,0.9
2022-09-07T17:45:30.977Z,1.4
2022-09-07T17:47:57.083Z,1.9
2022-09-07T17:50:23.173Z,1
2022-09-07T17:52:48.287Z,0.8
2022-09-07T17:55:14.380Z,1
2022-09-07T17:57:40.476Z,0.8
2022-09-07T18:00:06.573Z,0.9
2022-09-07T18:02:32.664Z,0.9
2022-09-07T18:04:58.836Z,0.9
2022-09-07T18:07:24.870Z,0.8
2022-09-07T18:09:50.941Z,0.8
2022-09-07T18:12:17.071Z,1
2022-09-07T18:14:43.140Z,0.9
2022-09-07T18:17:09.238Z,1.1
2022-09-07T18:19:35.371Z,0.9
2022-09-07T18:22:01.421Z,1.2
2022-09-07T18:24:26.565Z,1
2022-09-07T18:26:52.704Z,1
2022-09-07T18:29:18.722Z,0.8
2022-09-07T18:31:44.818Z,0.8
2022-09-07T18:34:10.916Z,0.8
2022-09-07T18:36:37.055Z,1.7
2022-09-07T18:39:03.107Z,0.9
2022-09-07T18:41:29.206Z,0.7
2022-09-07T18:43:55.296Z,0.8
2022-09-07T18:46:21.395Z,0.6
2022-09-07T18:48:47.480Z,0.6
2022-09-07T18:51:13.588Z,0.7
2022-09-07T18:53:39.695Z,1
2022-09-07T18:56:04.782Z,1.1
2022-09-07T18:58:30.904Z,1.1
2022-09-07T19:00:56.986Z,1.1
2022-09-07T19:03:23.067Z,0.3
2022-09-07T19:05:49.158Z,0.8
2022-09-07T19:08:15.265Z,0.3
2022-09-07T19:10:41.361Z,0.6
2022-09-07T19:13:07.449Z,0.9
2022-09-07T19:15:33.584Z,0.2
2022-09-07T19:17:59.650Z,0.4
2022-09-07T19:20:25.758Z,0.4
2022-09-07T19:22:51.844Z,0.8
2022-09-07T19:25:17.940Z,0.4
2022-09-07T19:27:43.052Z,0.5
2022-09-07T19:30:09.150Z,0.4
2022-09-07T19:32:35.278Z,0.6
2022-09-07T19:35:01.357Z,0.3
2022-09-07T19:37:27.492Z,0.4
2022-09-07T19:39:53.554Z,0.2
2022-09-07T19:42:19.612Z,0.6
2022-09-07T19:44:45.700Z,0.6
2022-09-07T19:47:11.845Z,0.5
2022-09-07T19:49:37.921Z,0.7
2022-09-07T19:52:03.998Z,0.4
2022-09-07T19:56:56.179Z,0.4
2022-09-07T19:59:21.309Z,0.5
2022-09-07T20:01:47.387Z,0.5
2022-09-07T20:04:13.497Z,0.5
2022-09-07T20:06:39.587Z,0.3
2022-09-07T20:09:05.683Z,0.7
2022-09-07T20:11:31.789Z,0.8
2022-09-07T20:13:57.978Z,0.4
2022-09-07T20:16:23.963Z,0.3
2022-09-07T20:18:50.052Z,0.1
2022-09-07T20:21:16.179Z,0.2
2022-09-07T20:23:42.253Z,0.2
2022-09-07T20:26:08.351Z,0.1
2022-09-07T20:28:34.560Z,0.7
2022-09-07T20:30:59.543Z,0.2
2022-09-07T20:33:25.649Z,0.5
2022-09-07T20:35:51.756Z,0.3
2022-09-07T20:38:17.838Z,0.5
2022-09-07T20:40:43.928Z,0.5
2022-09-07T20:43:10.026Z,0.2
2022-09-07T20:45:36.115Z,0.4
2022-09-07T20:48:02.207Z,0.6
2022-09-07T20:50:28.304Z,0.3
2022-09-07T20:52:54.434Z,0.2
2022-09-07T20:55:20.518Z,0.6
2022-09-07T20:57:46.592Z,0.3
2022-09-07T21:00:12.715Z,0.2
2022-09-07T21:02:37.815Z,0.3
2022-09-07T21:05:03.887Z,0.4
2022-09-07T21:07:30.002Z,0.4
2022-09-07T21:09:56.096Z,0.3
2022-09-07T21:12:22.168Z,0.4
2022-09-07T21:14:48.279Z,0.1
2022-09-07T21:17:14.393Z,0.3
2022-09-07T21:19:40.462Z,0.2
2022-09-07T21:22:06.537Z,0.3
2022-09-07T21:24:32.658Z,0.1
2022-09-07T21:26:58.764Z,0.2
2022-09-07T21:29:24.915Z,0.5
2022-09-07T21:31:50.931Z,0.5
2022-09-07T21:34:16.044Z,0.3
2022-09-07T21:36:42.140Z,0.4
2022-09-07T21:39:08.221Z,0.3
2022-09-07T21:41:34.334Z,0.6
2022-09-07T21:44:00.437Z,0.4
2022-09-07T21:46:26.509Z,0.3
2022-09-07T21:48:52.707Z,0.3
2022-09-07T21:51:18.718Z,0.1
2022-09-07T21:53:44.798Z,0.2
2022-09-07T21:56:10.906Z,0.3
2022-09-07T21:58:37.001Z,0.2
2022-09-07T22:01:03.086Z,0.1
2022-09-07T22:03:29.191Z,0.1
2022-09-07T22:05:54.309Z,0.2
2022-09-07T22:08:20.392Z,1
2022-09-07T22:10:46.489Z,0.3
2022-09-07T22:13:12.585Z,0.2
2022-09-07T22:15:38.682Z,1
2022-09-07T22:18:04.775Z,0.1
2022-09-07T22:20:30.854Z,0
2022-09-07T22:22:56.966Z,0
2022-09-07T22:25:23.055Z,0.1
2022-09-07T22:27:49.152Z,0.2
2022-09-07T22:30:15.250Z,0.3
2022-09-07T22:32:41.337Z,0.3
2022-09-07T22:35:07.490Z,0.4
2022-09-07T22:37:32.625Z,0.2
2022-09-07T22:39:58.676Z,0.6
2022-09-07T22:42:24.784Z,0.1
2022-09-07T22:44:50.853Z,0.6
2022-09-07T22:47:16.947Z,0.9
2022-09-07T22:49:43.114Z,0.3
2022-09-07T22:52:09.129Z,0.3
2022-09-07T22:54:35.236Z,0.2
2022-09-07T22:57:01.376Z,0.3
2022-09-07T22:59:27.410Z,0.5
2022-09-07T23:01:53.511Z,0.2
2022-09-07T23:04:19.631Z,0.2
2022-09-07T23:06:45.703Z,0.2
2022-09-07T23:09:10.806Z,0.2
2022-09-07T23:11:36.910Z,0.5
2022-09-07T23:14:03.017Z,0.5
2022-09-07T23:16:29.116Z,0.6
2022-09-07T23:18:55.234Z,0.5
2022-09-07T23:21:21.304Z,0.1
2022-09-07T23:23:47.399Z,0.2
2022-09-07T23:26:13.484Z,0.4
2022-09-07T23:28:39.566Z,0.3
2022-09-07T23:31:05.691Z,0.4
2022-09-07T23:33:31.758Z,0
2022-09-07T23:35:57.875Z,0.5
2022-09-07T23:38:23.945Z,0.3
2022-09-07T23:40:49.067Z,0.4
2022-09-07T23:43:15.166Z,0.5
2022-09-07T23:45:41.279Z,0.2
2022-09-07T23:48:07.347Z,0.5
2022-09-07T23:50:33.481Z,0.4
2022-09-07T23:52:59.536Z,0.7
2022-09-07T23:55:24.683Z,0.5
2022-09-07T23:57:50.749Z,0.1
